Terminal Aerodrome Forecast
Issued by NWS Wilmington, OH

Current Version | Previous Version | Graphics & Text | Print | Product List | Glossary On
Versions: 1 2 3 4 5 6 7 8 9 10 11 12 13 14 15 16 17 18 19 20 21 22
621
FTUS41 KILN 222058 AAA
TAFCVG
TAF AMD
KCVG 222058Z 2221/2324 06011KT P6SM BKN150
     FM230000 05006KT P6SM BKN150
     FM231200 09012G20KT P6SM OVC120
     FM231300 10013G23KT 5SM -SHRA OVC025
     FM231800 09015G25KT P6SM VCSH OVC015=

USA.gov is the U.S. government's official web portal to all federal, state and local government web resources and services.